This is the latest recevied weather packets stored in our database for station/object BMCB-10. If no packets are shown the sender has not sent any weather packets the latest 10 day(s).
| Time | Temp. | Humidity | Pressure | Rain* | Wind** | Luminosity | Snow |
|---|---|---|---|---|---|---|---|
| 1777278656 | 10.56° C | 70% | 1024 hPa | 0 mm | - | 424 W/m² | - |
| 1777266056 | 0° C | 10% | 1023.7 hPa | 0 mm | - | - | - |
| 1777264855 | 0° C | 10% | 1023.6 hPa | 0 mm | - | - | - |
| 1777260656 | 0° C | 10% | 1023.7 hPa | 0 mm | - | - | - |
| 1777257657 | 0.56° C | 10% | 1023.7 hPa | 0 mm | - | - | - |
| 1777257060 | 0.56° C | 10% | 1023.8 hPa | 0 mm | - | - | - |
| 1777256454 | 0.56° C | 10% | 1023.8 hPa | 0 mm | - | - | - |
| 1777254057 | 1.11° C | 10% | 1023.9 hPa | 0 mm | - | - | - |
| 1777251055 | 1.67° C | 10% | 1024.1 hPa | 0 mm | - | - | - |
| 1777242065 | 3.33° C | 96% | 1024.2 hPa | 0 mm | - | 0 W/m² | - |
| 1777235465 | 5° C | 92% | 1024.3 hPa | 0 mm | - | 0 W/m² | - |
| 1777231261 | 6.11° C | 86% | 1024.1 hPa | 0 mm | - | 0 W/m² | - |
| 1777226461 | 11.67° C | 65% | 1023.6 hPa | 0 mm | - | 24 W/m² | - |
| 1777225860 | 12.22° C | 62% | 1023.7 hPa | 0 mm | - | 34 W/m² | - |
| 1777224661 | 12.78° C | 55% | 1023.7 hPa | 0 mm | - | 38 W/m² | - |
| 1777222860 | 15° C | 43% | 1023.6 hPa | 0 mm | - | 42 W/m² | - |
| 1777220459 | 16.67° C | 37% | 1023.6 hPa | 0 mm | - | 234 W/m² | - |
| 1777219261 | 17.22° C | 37% | 1023.6 hPa | 0 mm | - | 334 W/m² | - |
| 1777218058 | 17.22° C | 38% | 1023.6 hPa | 0 mm | - | 368 W/m² | - |
| 1777216859 | 17.22° C | 39% | 1023.7 hPa | 0 mm | - | 466 W/m² | - |
| 1777211453 | 16.67° C | 41% | 1024.4 hPa | 0 mm | - | 676 W/m² | - |
| 1777210260 | 16.11° C | 46% | 1024.4 hPa | 0 mm | - | 710 W/m² | - |
| 1777205456 | 15.56° C | 49% | 1024.7 hPa | 0 mm | - | 796 W/m² | - |
| 1777195259 | 11.67° C | 72% | 1025.4 hPa | 0 mm | - | 670 W/m² | - |
| 1777194660 | 11.11° C | 76% | 1025.5 hPa | 0 mm | - | 648 W/m² | - |
* Rain latest hour (hover to see other rain measurements)
** Current wind speed in m/s (hover to see current wind gust speed)